createdAt,value
2019-04-14T00:07:25.488Z,80.02
2019-04-14T00:09:52.290Z,80.12
2019-04-14T00:12:18.770Z,80.17
2019-04-14T00:14:46.926Z,80.77
2019-04-14T00:17:13.755Z,80.40
2019-04-14T00:19:41.504Z,79.88
2019-04-14T00:22:07.493Z,80.21
2019-04-14T00:24:33.533Z,80.26
2019-04-14T00:27:02.047Z,79.51
2019-04-14T00:29:28.914Z,80.11
2019-04-14T00:31:55.490Z,80.73
2019-04-14T00:34:42.400Z,80.82
2019-04-14T00:42:53.779Z,80.42
2019-04-14T00:45:46.434Z,80.54
2019-04-14T00:50:55.912Z,80.25
2019-04-14T00:53:22.883Z,80.16
2019-04-14T00:55:51.111Z,80.16
2019-04-14T00:58:18.984Z,80.50
2019-04-14T01:00:45.763Z,80.58
2019-04-14T01:03:11.607Z,80.50
2019-04-14T01:05:37.534Z,80.60
2019-04-14T01:08:03.377Z,80.93
2019-04-14T01:10:30.043Z,81.02
2019-04-14T01:12:58.083Z,81.10
2019-04-14T01:15:24.758Z,81.22
2019-04-14T01:17:50.727Z,81.77
2019-04-14T01:20:16.745Z,81.48
2019-04-14T01:22:44.593Z,81.77
2019-04-14T01:25:12.850Z,81.52
2019-04-14T01:27:40.660Z,81.56
2019-04-14T01:30:50.109Z,81.86
2019-04-14T01:33:16.953Z,81.83
2019-04-14T01:35:44.693Z,81.84
2019-04-14T01:38:10.543Z,82.06
2019-04-14T01:40:36.386Z,82.06
2019-04-14T01:43:02.214Z,82.57
2019-04-14T01:45:28.057Z,82.46
2019-04-14T01:47:53.910Z,82.67
2019-04-14T01:55:50.586Z,82.47
2019-04-14T01:58:36.296Z,82.88
2019-04-14T02:03:40.901Z,82.96
2019-04-14T02:06:07.692Z,82.90
2019-04-14T02:08:33.513Z,83.00
2019-04-14T02:10:59.353Z,82.79
2019-04-14T02:13:25.180Z,83.55
2019-04-14T02:15:51.062Z,83.52
2019-04-14T02:18:16.900Z,83.59
2019-04-14T02:20:42.757Z,84.40
2019-04-14T02:23:08.605Z,84.75
2019-04-14T02:25:34.454Z,84.79
2019-04-14T02:28:00.276Z,85.11
2019-04-14T02:30:33.992Z,84.81
2019-04-14T02:33:26.621Z,84.84
2019-04-14T02:38:31.060Z,85.29
2019-04-14T02:40:45.916Z,85.47
2019-04-14T02:45:57.865Z,85.56
2019-04-14T02:48:36.097Z,85.39
2019-04-14T02:50:56.129Z,85.63
2019-04-14T02:55:57.785Z,86.23
2019-04-14T02:58:23.872Z,86.83
2019-04-14T03:00:51.147Z,87.19
2019-04-14T03:03:16.881Z,87.45
2019-04-14T03:05:44.746Z,87.29
2019-04-14T03:08:36.059Z,87.54
2019-04-14T03:11:17.426Z,87.46
2019-04-14T03:19:43.991Z,88.71
2019-04-14T03:22:33.163Z,88.63
2019-04-14T03:25:02.744Z,88.93
2019-04-14T03:34:06.211Z,89.37
2019-04-14T03:41:10.783Z,89.42
2019-04-14T03:43:30.599Z,89.58
2019-04-14T03:46:03.794Z,89.61
2019-04-14T03:48:44.866Z,89.67
2019-04-14T03:50:53.758Z,90.27
2019-04-14T03:53:22.982Z,90.53
2019-04-14T03:56:07.058Z,90.17
2019-04-14T03:58:29.748Z,90.26
2019-04-14T04:00:55.602Z,89.91
2019-04-14T04:03:21.827Z,90.11
2019-04-14T04:05:49.951Z,89.71
2019-04-14T04:08:18.032Z,90.28
2019-04-14T04:11:04.664Z,89.88
2019-04-14T04:13:30.529Z,90.38
2019-04-14T04:21:37.915Z,92.34
2019-04-14T04:24:23.768Z,92.78
2019-04-14T04:27:09.537Z,93.37
2019-04-14T04:29:55.257Z,92.17
2019-04-14T04:32:41.098Z,91.36
2019-04-14T04:40:31.332Z,89.35
2019-04-14T04:42:57.319Z,89.45
2019-04-14T04:45:23.518Z,89.32
2019-04-14T04:47:49.549Z,89.28
2019-04-14T04:50:15.418Z,91.76
2019-04-14T04:52:41.262Z,93.55
2019-04-14T04:55:07.267Z,93.69
2019-04-14T04:57:33.145Z,95.29
2019-04-14T04:59:59.007Z,95.78
2019-04-14T05:02:24.843Z,95.30
2019-04-14T05:04:50.702Z,94.34
2019-04-14T05:07:16.749Z,93.18
2019-04-14T05:09:47.324Z,92.35
2019-04-14T05:12:17.848Z,93.34
2019-04-14T05:15:01.024Z,93.12
2019-04-14T05:17:32.028Z,92.29
2019-04-14T05:19:58.407Z,92.94
2019-04-14T05:22:24.741Z,94.05
2019-04-14T05:24:50.828Z,95.57
2019-04-14T05:27:16.779Z,95.11
2019-04-14T05:29:43.036Z,96.10
2019-04-14T05:32:08.961Z,95.64
2019-04-14T05:34:34.807Z,95.66
2019-04-14T05:37:00.741Z,95.59
2019-04-14T05:39:26.584Z,95.38
2019-04-14T05:42:03.836Z,95.58
2019-04-14T05:44:20.782Z,94.83
2019-04-14T05:46:46.998Z,94.23
2019-04-14T05:49:24.535Z,95.74
2019-04-14T05:51:41.564Z,95.56
2019-04-14T05:54:07.809Z,94.91
2019-04-14T05:56:36.105Z,94.06
2019-04-14T05:59:02.262Z,92.91
2019-04-14T06:01:29.214Z,93.15
2019-04-14T06:03:56.026Z,92.94
2019-04-14T06:06:22.004Z,91.76
2019-04-14T06:08:47.884Z,92.48
2019-04-14T06:11:13.752Z,92.55
2019-04-14T06:13:39.616Z,91.76
2019-04-14T06:16:05.555Z,92.17
2019-04-14T06:18:31.503Z,92.98
2019-04-14T06:20:57.413Z,92.62
2019-04-14T06:23:23.299Z,91.48
2019-04-14T06:25:49.155Z,91.29
2019-04-14T06:28:14.997Z,91.27
2019-04-14T06:31:00.735Z,90.65
2019-04-14T06:36:33.945Z,89.84
2019-04-14T06:39:19.701Z,87.90
2019-04-14T06:41:45.524Z,87.92
2019-04-14T06:44:11.366Z,88.82
2019-04-14T06:46:37.238Z,88.21
2019-04-14T06:49:03.267Z,87.53
2019-04-14T06:51:29.150Z,87.38
2019-04-14T06:53:54.991Z,86.78
2019-04-14T06:56:20.838Z,84.81
2019-04-14T06:58:46.665Z,83.60
2019-04-14T07:01:12.547Z,83.28
2019-04-14T07:03:38.414Z,81.63
2019-04-14T07:06:04.258Z,82.53
2019-04-14T07:08:30.097Z,80.67
2019-04-14T07:10:55.969Z,78.59
2019-04-14T07:13:21.864Z,77.85
2019-04-14T07:15:47.867Z,77.75
2019-04-14T07:18:13.755Z,78.98
2019-04-14T07:20:39.587Z,77.86
2019-04-14T07:23:05.450Z,79.36
2019-04-14T07:25:31.291Z,78.12
2019-04-14T07:27:57.136Z,77.79
2019-04-14T07:30:42.854Z,78.60
2019-04-14T07:33:28.700Z,77.68
2019-04-14T07:36:14.521Z,76.51
2019-04-14T07:39:00.263Z,74.92
2019-04-14T07:41:45.969Z,75.67
2019-04-14T07:44:31.701Z,72.89
2019-04-14T07:50:14.078Z,72.87
2019-04-14T07:55:39.799Z,72.15
2019-04-14T07:58:25.514Z,71.08
2019-04-14T08:01:11.256Z,70.71
2019-04-14T08:03:56.977Z,68.64
2019-04-14T08:06:22.860Z,68.34
2019-04-14T08:08:48.712Z,68.77
2019-04-14T08:11:14.576Z,69.67
2019-04-14T08:13:40.505Z,70.76
2019-04-14T08:16:06.334Z,70.54
2019-04-14T08:18:32.225Z,69.94
2019-04-14T08:20:58.078Z,69.21
2019-04-14T08:23:23.915Z,68.46
2019-04-14T08:25:49.766Z,70.20
2019-04-14T08:28:15.666Z,67.87
2019-04-14T08:30:41.512Z,67.23
2019-04-14T08:33:07.417Z,66.61
2019-04-14T08:35:33.373Z,68.45
2019-04-14T08:37:59.204Z,67.25
2019-04-14T08:40:25.068Z,65.97
2019-04-14T08:43:10.799Z,66.39
2019-04-14T08:48:33.882Z,66.26
2019-04-14T08:54:13.953Z,65.66
2019-04-14T09:00:06.941Z,65.62
2019-04-14T09:05:40.064Z,67.05
2019-04-14T09:08:25.785Z,67.80
2019-04-14T09:11:11.527Z,66.48
2019-04-14T09:13:37.374Z,65.61
2019-04-14T09:16:03.249Z,65.14
2019-04-14T09:18:49.087Z,65.95
2019-04-14T09:21:14.971Z,65.38
2019-04-14T09:23:40.795Z,66.08
2019-04-14T09:26:06.676Z,63.94
2019-04-14T09:28:32.539Z,62.67
2019-04-14T09:30:58.407Z,61.58
2019-04-14T09:36:18.341Z,61.01
2019-04-14T09:38:44.190Z,62.21
2019-04-14T09:41:29.881Z,62.38
2019-04-14T09:43:55.737Z,62.67
2019-04-14T09:46:21.592Z,63.12
2019-04-14T09:48:47.482Z,61.25
2019-04-14T09:51:13.343Z,60.14
2019-04-14T09:53:39.201Z,60.56
2019-04-14T09:56:05.017Z,61.09
2019-04-14T09:58:30.892Z,61.47
2019-04-14T10:00:56.725Z,62.39
2019-04-14T10:03:22.547Z,64.55
2019-04-14T10:05:48.393Z,62.03
2019-04-14T10:08:14.340Z,60.52
2019-04-14T10:10:40.181Z,59.10
2019-04-14T10:13:06.008Z,59.11
2019-04-14T10:15:31.858Z,58.24
2019-04-14T10:17:57.990Z,60.51
2019-04-14T10:20:23.876Z,60.75
2019-04-14T10:22:49.696Z,60.20
2019-04-14T10:25:57.183Z,60.00
2019-04-14T10:28:23.019Z,60.69
2019-04-14T10:30:48.861Z,62.72
2019-04-14T10:33:14.695Z,62.38
2019-04-14T10:35:40.549Z,62.27
2019-04-14T10:38:06.386Z,59.97
2019-04-14T10:40:32.239Z,61.88
2019-04-14T10:42:58.107Z,61.25
2019-04-14T10:45:23.960Z,63.42
2019-04-14T10:47:49.817Z,61.50
2019-04-14T10:50:15.666Z,60.38
2019-04-14T10:52:41.515Z,61.46
2019-04-14T10:55:48.996Z,62.62
2019-04-14T10:58:34.728Z,61.49
2019-04-14T11:01:00.572Z,62.29
2019-04-14T11:03:26.519Z,62.00
2019-04-14T11:06:12.230Z,61.49
2019-04-14T11:08:38.082Z,62.32
2019-04-14T11:11:03.916Z,62.52
2019-04-14T11:13:29.857Z,62.01
2019-04-14T11:15:55.692Z,64.08
2019-04-14T11:18:21.551Z,63.04
2019-04-14T11:20:47.422Z,65.88
2019-04-14T11:23:13.254Z,67.62
2019-04-14T11:25:39.117Z,67.46
2019-04-14T11:28:05.040Z,67.27
2019-04-14T11:30:30.922Z,67.50
2019-04-14T11:33:16.618Z,68.51
2019-04-14T11:36:02.355Z,70.49
2019-04-14T11:43:49.177Z,73.09
2019-04-14T11:46:34.986Z,72.66
2019-04-14T11:51:55.188Z,69.05
2019-04-14T11:54:35.784Z,68.44
2019-04-14T11:57:01.636Z,68.44
2019-04-14T11:59:47.364Z,68.21
2019-04-14T12:02:53.125Z,66.18
2019-04-14T12:05:58.697Z,67.93
2019-04-14T12:09:04.298Z,68.32
2019-04-14T12:11:30.236Z,68.32
2019-04-14T12:13:56.101Z,68.92
2019-04-14T12:16:22.039Z,69.63
2019-04-14T12:18:47.897Z,68.26
2019-04-14T12:21:13.767Z,67.17
2019-04-14T12:23:39.592Z,69.01
2019-04-14T12:26:06.101Z,70.02
2019-04-14T12:28:53.725Z,70.56
2019-04-14T12:31:39.659Z,72.65
2019-04-14T12:34:25.447Z,72.31
2019-04-14T12:36:51.325Z,72.31
2019-04-14T12:39:58.802Z,74.32
2019-04-14T12:55:36.788Z,77.55
2019-04-14T13:01:09.949Z,79.69
2019-04-14T13:06:12.977Z,81.01
2019-04-14T13:08:38.883Z,80.87
2019-04-14T13:13:52.134Z,82.50
2019-04-14T13:16:17.962Z,81.92
2019-04-14T13:18:43.852Z,82.57
2019-04-14T13:21:09.699Z,82.02
2019-04-14T13:23:35.959Z,82.55
2019-04-14T13:28:47.371Z,82.59
2019-04-14T13:31:13.218Z,82.58
2019-04-14T13:33:39.181Z,82.50
2019-04-14T13:36:05.071Z,82.62
2019-04-14T13:38:30.921Z,82.36
2019-04-14T13:40:56.773Z,82.58
2019-04-14T13:43:42.527Z,82.88
2019-04-14T13:46:08.411Z,82.88
2019-04-14T13:48:34.297Z,82.88
2019-04-14T13:51:00.144Z,83.14
2019-04-14T13:53:25.991Z,83.51
2019-04-14T13:55:51.841Z,82.52
2019-04-14T13:58:17.670Z,82.79
2019-04-14T14:00:43.536Z,83.02
2019-04-14T14:03:09.389Z,82.92
2019-04-14T14:05:35.245Z,83.18
2019-04-14T14:08:01.083Z,82.92
2019-04-14T14:13:23.836Z,84.09
2019-04-14T14:16:09.569Z,82.69
2019-04-14T14:29:07.413Z,83.60
2019-04-14T14:31:33.265Z,83.95
2019-04-14T14:33:59.091Z,83.60
2019-04-14T14:36:24.935Z,83.60
2019-04-14T14:38:50.776Z,82.78
2019-04-14T14:44:04.467Z,83.91
2019-04-14T14:54:45.449Z,82.91
2019-04-14T14:57:11.310Z,83.44
2019-04-14T14:59:37.169Z,82.08
2019-04-14T15:04:35.498Z,82.82
2019-04-14T15:07:01.468Z,82.32
2019-04-14T15:09:27.313Z,82.96
2019-04-14T15:11:53.193Z,82.74
2019-04-14T15:17:04.815Z,85.42
2019-04-14T15:19:30.695Z,87.17
2019-04-14T15:21:56.558Z,88.28
2019-04-14T15:24:22.394Z,88.85
2019-04-14T15:27:08.337Z,89.32
2019-04-14T15:29:34.167Z,89.31
2019-04-14T15:31:59.996Z,89.22
2019-04-14T15:34:25.907Z,89.45
2019-04-14T15:36:51.824Z,89.16
2019-04-14T15:39:17.725Z,90.00
2019-04-14T15:41:43.661Z,89.40
2019-04-14T15:44:09.547Z,90.12
2019-04-14T15:46:35.392Z,90.97
2019-04-14T15:49:01.222Z,91.53
2019-04-14T15:51:27.081Z,91.46
2019-04-14T15:53:52.924Z,92.48
2019-04-14T15:56:38.648Z,91.73
2019-04-14T15:59:44.261Z,92.82
2019-04-14T16:05:45.218Z,92.25
2019-04-14T16:13:38.643Z,91.77
2019-04-14T16:16:24.353Z,91.68
2019-04-14T16:21:24.126Z,93.12
2019-04-14T16:23:51.067Z,93.21
2019-04-14T16:29:24.989Z,93.05
2019-04-14T16:32:10.722Z,93.65
2019-04-14T16:37:30.295Z,94.41
2019-04-14T16:39:56.177Z,94.64
2019-04-14T16:42:41.889Z,94.88
2019-04-14T16:45:49.390Z,95.41
2019-04-14T16:48:15.246Z,95.16
2019-04-14T16:50:41.096Z,95.07
2019-04-14T16:53:26.918Z,95.79
2019-04-14T16:58:50.151Z,95.98
2019-04-14T17:01:35.920Z,95.94
2019-04-14T17:04:21.725Z,97.47
2019-04-14T17:06:47.605Z,97.41
2019-04-14T17:09:33.407Z,98.29
2019-04-14T17:11:59.547Z,98.21
2019-04-14T17:14:46.988Z,98.02
2019-04-14T17:17:32.709Z,97.73
2019-04-14T17:20:18.463Z,97.89
2019-04-14T17:28:17.909Z,99.18
2019-04-14T17:31:03.648Z,99.95
2019-04-14T17:34:09.274Z,100.00
2019-04-14T17:36:54.986Z,100.00
2019-04-14T17:40:00.602Z,100.00
2019-04-14T17:46:13.442Z,100.00
2019-04-14T17:52:06.428Z,100.00
2019-04-14T17:54:52.157Z,100.00
2019-04-14T18:00:15.179Z,100.00
2019-04-14T18:10:48.926Z,100.00
2019-04-14T18:16:30.620Z,100.00
2019-04-14T18:19:16.378Z,100.00
2019-04-14T18:21:55.191Z,100.00
2019-04-14T18:24:21.094Z,100.00
2019-04-14T18:26:46.984Z,100.00
2019-04-14T18:29:32.693Z,100.00
2019-04-14T18:35:05.792Z,100.00
2019-04-14T18:40:58.877Z,100.00
2019-04-14T18:43:44.628Z,100.00
2019-04-14T18:49:17.736Z,100.00
2019-04-14T18:52:03.474Z,100.00
2019-04-14T18:54:54.812Z,100.00
2019-04-14T19:00:45.982Z,100.00
2019-04-14T19:03:11.876Z,100.00
2019-04-14T19:05:37.771Z,100.00
2019-04-14T19:08:03.587Z,100.00
2019-04-14T19:10:29.478Z,100.00
2019-04-14T19:13:15.220Z,100.00
2019-04-14T19:16:20.829Z,100.00
2019-04-14T19:19:01.496Z,100.00
2019-04-14T19:24:14.746Z,100.00
2019-04-14T19:26:40.583Z,100.00
2019-04-14T19:29:06.448Z,100.00
2019-04-14T19:31:32.305Z,100.00
2019-04-14T19:33:58.150Z,100.00
2019-04-14T19:36:24.023Z,100.00
2019-04-14T19:38:49.865Z,100.00
2019-04-14T19:41:35.646Z,100.00
2019-04-14T19:44:21.454Z,100.00
2019-04-14T19:46:47.360Z,100.00
2019-04-14T19:49:13.232Z,100.00
2019-04-14T19:51:39.356Z,100.00
2019-04-14T19:54:05.244Z,100.00
2019-04-14T19:56:31.128Z,100.00
2019-04-14T19:58:56.971Z,100.00
2019-04-14T20:01:22.869Z,100.00
2019-04-14T20:03:48.771Z,100.00
2019-04-14T20:06:14.702Z,100.00
2019-04-14T20:08:40.560Z,100.00
2019-04-14T20:11:06.570Z,100.00
2019-04-14T20:16:26.134Z,100.00
2019-04-14T20:19:11.907Z,100.00
2019-04-14T20:24:31.438Z,100.00
2019-04-14T20:29:51.192Z,100.00
2019-04-14T20:37:26.327Z,100.00
2019-04-14T20:39:52.185Z,100.00
2019-04-14T20:42:18.354Z,100.00
2019-04-14T20:44:47.950Z,100.00
2019-04-14T20:50:01.340Z,100.00
2019-04-14T20:52:47.293Z,100.00
2019-04-14T20:55:45.939Z,100.00
2019-04-14T20:58:01.014Z,100.00
2019-04-14T21:00:46.814Z,100.00
2019-04-14T21:03:32.602Z,100.00
2019-04-14T21:06:38.387Z,100.00
2019-04-14T21:09:45.891Z,100.00
2019-04-14T21:17:56.966Z,100.00
2019-04-14T21:23:35.845Z,100.00
2019-04-14T21:26:21.583Z,100.00
2019-04-14T21:29:07.589Z,100.00
2019-04-14T21:31:53.359Z,100.00
2019-04-14T21:37:33.990Z,100.00
2019-04-14T21:40:19.718Z,100.00
2019-04-14T21:45:31.142Z,100.00
2019-04-14T21:47:57.357Z,100.00
2019-04-14T21:50:23.201Z,100.00
2019-04-14T21:52:50.034Z,100.00
2019-04-14T21:55:16.945Z,100.00
2019-04-14T21:58:02.668Z,100.00
2019-04-14T22:01:10.158Z,100.00
2019-04-14T22:03:55.875Z,100.00
2019-04-14T22:08:58.902Z,100.00
2019-04-14T22:16:47.684Z,100.00
2019-04-14T22:19:13.553Z,100.00
2019-04-14T22:21:39.399Z,100.00
2019-04-14T22:24:05.231Z,100.00
2019-04-14T22:26:31.173Z,100.00
2019-04-14T22:28:57.116Z,100.00
2019-04-14T22:31:23.096Z,100.00
2019-04-14T22:33:48.952Z,100.00
2019-04-14T22:36:14.799Z,100.00
2019-04-14T22:38:40.694Z,100.00
2019-04-14T22:41:06.526Z,100.00
2019-04-14T22:43:32.392Z,100.00
2019-04-14T22:46:39.896Z,100.00
2019-04-14T22:49:05.734Z,100.00
2019-04-14T22:51:31.580Z,100.00
2019-04-14T22:53:57.440Z,100.00
2019-04-14T22:56:23.281Z,100.00
2019-04-14T22:58:49.147Z,100.00
2019-04-14T23:01:34.849Z,100.00
2019-04-14T23:06:54.492Z,100.00
2019-04-14T23:09:40.213Z,100.00
2019-04-14T23:18:06.793Z,100.00
2019-04-14T23:25:43.936Z,100.00
2019-04-14T23:28:09.768Z,100.00
2019-04-14T23:30:55.601Z,100.00
2019-04-14T23:33:21.454Z,100.00
2019-04-14T23:35:47.323Z,100.00
2019-04-14T23:38:13.148Z,100.00
2019-04-14T23:40:39.069Z,100.00
2019-04-14T23:43:04.856Z,100.00
2019-04-14T23:45:30.710Z,100.00
2019-04-14T23:47:56.554Z,100.00
2019-04-14T23:50:22.426Z,100.00
2019-04-14T23:52:48.264Z,100.00
2019-04-14T23:55:14.175Z,100.00
2019-04-14T23:57:39.956Z,100.00
